Time;durP1;ratioP1;P1;durP2;ratioP2;P2;SDS_P1;SDS_P2;PMS_P1;PMS_P2;Temp;Humidity;BMP_temperature;BMP_pressure;BME280_temperature;BME280_humidity;BME280_pressure;Samples;Min_cycle;Max_cycle;Signal;HPM_P1;HPM_P2
2021/09/20 00:00:42;;;;;;;5.20;3.10;;;;;;;;;;5079189;28;20420;-82
2021/09/20 00:03:09;;;;;;;3.80;2.92;;;;;;;;;;5095760;28;20062;-82
2021/09/20 00:05:36;;;;;;;4.70;2.63;;;;;;;;;;5096889;28;20052;-83
2021/09/20 00:08:03;;;;;;;5.88;2.72;;;;;;;;;;5085314;28;20065;-83
2021/09/20 00:10:30;;;;;;;4.85;2.78;;;;;;;;;;5086630;28;20416;-83
2021/09/20 00:12:56;;;;;;;6.85;3.13;;;;;;;;;;5084181;28;20435;-83
2021/09/20 00:15:23;;;;;;;5.75;2.40;;;;;;;;;;5083158;28;20063;-82
2021/09/20 00:17:50;;;;;;;6.05;2.88;;;;;;;;;;5099899;28;20404;-83
2021/09/20 00:20:16;;;;;;;4.60;2.70;;;;;;;;;;5101005;28;20052;-82
2021/09/20 00:22:46;;;;;;;8.57;2.88;;;;;;;;;;5111710;28;20063;-82
2021/09/20 00:25:13;;;;;;;5.95;2.70;;;;;;;;;;5100576;28;20039;-81
2021/09/20 00:27:40;;;;;;;5.50;2.85;;;;;;;;;;5111125;28;20051;-82
2021/09/20 00:30:07;;;;;;;5.75;2.58;;;;;;;;;;5083107;28;20059;-81
2021/09/20 00:32:35;;;;;;;5.88;3.30;;;;;;;;;;5101798;28;20060;-81
2021/09/20 00:35:01;;;;;;;5.03;2.70;;;;;;;;;;5114416;28;20044;-81
2021/09/20 00:37:28;;;;;;;5.30;2.85;;;;;;;;;;5084776;28;20494;-81
2021/09/20 00:39:54;;;;;;;9.60;3.15;;;;;;;;;;5085041;28;20083;-81
2021/09/20 00:42:21;;;;;;;4.45;2.20;;;;;;;;;;5070486;28;20056;-81
2021/09/20 00:44:47;;;;;;;9.25;3.28;;;;;;;;;;5070506;28;20098;-81
2021/09/20 00:47:14;;;;;;;4.57;2.28;;;;;;;;;;5082231;28;20060;-81
2021/09/20 00:49:42;;;;;;;4.85;2.70;;;;;;;;;;5062546;28;20048;-81
2021/09/20 00:52:09;;;;;;;4.00;2.63;;;;;;;;;;5063146;28;20064;-81
2021/09/20 00:54:36;;;;;;;7.75;2.78;;;;;;;;;;5062969;28;20084;-81
2021/09/20 00:57:06;;;;;;;8.23;3.35;;;;;;;;;;5062571;28;20075;-81
2021/09/20 00:59:33;;;;;;;7.78;3.13;;;;;;;;;;5080982;28;20052;-81
2021/09/20 01:02:00;;;;;;;4.25;2.55;;;;;;;;;;5066415;28;20052;-81
2021/09/20 01:04:27;;;;;;;5.35;2.80;;;;;;;;;;5072992;28;20079;-81
2021/09/20 01:06:57;;;;;;;9.38;2.80;;;;;;;;;;5069041;28;20075;-81
2021/09/20 01:09:25;;;;;;;8.13;3.03;;;;;;;;;;5080798;28;20053;-81
2021/09/20 01:11:52;;;;;;;5.60;2.80;;;;;;;;;;5080979;28;20384;-81
2021/09/20 01:14:18;;;;;;;5.72;2.30;;;;;;;;;;5062674;28;20071;-81
2021/09/20 01:16:45;;;;;;;4.20;2.47;;;;;;;;;;5078848;28;20078;-81
2021/09/20 01:19:11;;;;;;;4.68;2.60;;;;;;;;;;5079982;28;20052;-81
2021/09/20 01:21:38;;;;;;;5.85;2.25;;;;;;;;;;5062477;28;20063;-81
2021/09/20 01:24:08;;;;;;;6.78;2.88;;;;;;;;;;5062962;28;20075;-82
2021/09/20 01:26:34;;;;;;;4.93;3.05;;;;;;;;;;5080547;28;20064;-82
2021/09/20 01:29:03;;;;;;;5.15;2.38;;;;;;;;;;5062782;28;20052;-81
2021/09/20 01:31:33;;;;;;;7.07;2.85;;;;;;;;;;5062896;28;20044;-82
2021/09/20 01:34:06;;;;;;;5.57;2.45;;;;;;;;;;5061789;28;20380;-82
2021/09/20 01:36:32;;;;;;;7.43;2.53;;;;;;;;;;5079787;28;20056;-82
2021/09/20 01:38:59;;;;;;;10.05;2.75;;;;;;;;;;5062546;28;20462;-82
2021/09/20 01:41:31;;;;;;;5.57;2.75;;;;;;;;;;5079959;28;20061;-82
2021/09/20 01:43:58;;;;;;;7.13;2.55;;;;;;;;;;5080437;28;20431;-82
2021/09/20 01:46:24;;;;;;;6.50;2.78;;;;;;;;;;5081627;28;20055;-82
2021/09/20 01:48:51;;;;;;;7.95;2.63;;;;;;;;;;5086226;28;20052;-81
2021/09/20 01:51:18;;;;;;;4.55;2.60;;;;;;;;;;5094273;28;20807;-81
2021/09/20 01:53:44;;;;;;;5.60;2.60;;;;;;;;;;5073754;28;20055;-82
2021/09/20 01:56:11;;;;;;;5.53;2.40;;;;;;;;;;5062003;28;20052;-82
2021/09/20 01:58:41;;;;;;;7.45;2.72;;;;;;;;;;5079169;28;20126;-81
2021/09/20 02:01:07;;;;;;;6.35;2.60;;;;;;;;;;5080455;28;20060;-83
2021/09/20 02:03:34;;;;;;;8.75;2.85;;;;;;;;;;5078785;28;20086;-83
2021/09/20 02:06:01;;;;;;;6.45;2.95;;;;;;;;;;5080845;28;20052;-83
2021/09/20 02:08:28;;;;;;;9.38;2.83;;;;;;;;;;5062097;28;20068;-83
2021/09/20 02:10:54;;;;;;;4.97;2.65;;;;;;;;;;5061996;28;20421;-82
2021/09/20 02:13:21;;;;;;;4.95;2.30;;;;;;;;;;5077943;28;20141;-82
2021/09/20 02:15:47;;;;;;;7.28;3.08;;;;;;;;;;5060163;28;20079;-82
2021/09/20 02:18:14;;;;;;;4.18;2.47;;;;;;;;;;5083341;28;20075;-82
2021/09/20 02:20:41;;;;;;;9.90;2.53;;;;;;;;;;5089366;28;20114;-81
2021/09/20 02:23:07;;;;;;;6.22;2.60;;;;;;;;;;5083972;28;20057;-80
2021/09/20 02:25:34;;;;;;;8.25;2.50;;;;;;;;;;5062057;28;20053;-82
2021/09/20 02:28:04;;;;;;;6.63;2.60;;;;;;;;;;5060950;28;20064;-82
2021/09/20 02:30:30;;;;;;;6.28;2.95;;;;;;;;;;5062450;28;20053;-81
2021/09/20 02:32:57;;;;;;;4.60;2.30;;;;;;;;;;5061401;28;20059;-82
2021/09/20 02:35:23;;;;;;;8.73;2.65;;;;;;;;;;5061093;28;20048;-81
2021/09/20 02:37:50;;;;;;;3.75;2.30;;;;;;;;;;5061080;28;20056;-81
2021/09/20 02:40:17;;;;;;;10.48;2.70;;;;;;;;;;5060992;28;20295;-81
2021/09/20 02:42:43;;;;;;;3.85;2.13;;;;;;;;;;5077551;28;20131;-81
2021/09/20 02:45:10;;;;;;;5.85;2.50;;;;;;;;;;5060709;28;20291;-81
2021/09/20 02:47:37;;;;;;;9.30;2.85;;;;;;;;;;5078743;28;20056;-82
2021/09/20 02:50:05;;;;;;;8.95;2.50;;;;;;;;;;5060893;28;20486;-82
2021/09/20 02:52:32;;;;;;;5.95;2.42;;;;;;;;;;5061880;28;20052;-82
2021/09/20 02:54:58;;;;;;;5.55;2.67;;;;;;;;;;5083887;28;20056;-82
2021/09/20 02:57:25;;;;;;;9.00;2.53;;;;;;;;;;5084696;28;20360;-82
2021/09/20 02:59:55;;;;;;;5.63;2.78;;;;;;;;;;5063434;28;20350;-82
2021/09/20 03:02:22;;;;;;;6.95;2.55;;;;;;;;;;5083704;28;20063;-82
2021/09/20 03:04:49;;;;;;;5.65;2.38;;;;;;;;;;5081323;28;20056;-82
2021/09/20 03:07:16;;;;;;;4.38;2.17;;;;;;;;;;5071027;28;20268;-82
2021/09/20 03:09:43;;;;;;;7.68;2.90;;;;;;;;;;5083804;28;20070;-81
2021/09/20 03:12:10;;;;;;;3.05;2.13;;;;;;;;;;5100942;28;20048;-81
2021/09/20 03:14:38;;;;;;;5.45;2.60;;;;;;;;;;5101138;28;20052;-82
2021/09/20 03:17:05;;;;;;;6.75;2.60;;;;;;;;;;5123517;27;20051;-82
2021/09/20 03:19:32;;;;;;;9.73;2.45;;;;;;;;;;5124107;27;20385;-83
2021/09/20 03:21:59;;;;;;;4.50;2.33;;;;;;;;;;5126934;27;20051;-82
2021/09/20 03:24:26;;;;;;;6.45;2.80;;;;;;;;;;5135329;27;20043;-82
2021/09/20 03:26:53;;;;;;;5.00;2.67;;;;;;;;;;5136499;27;20207;-82
2021/09/20 03:29:20;;;;;;;16.33;3.58;;;;;;;;;;5154525;27;20057;-82
2021/09/20 03:31:47;;;;;;;5.93;2.35;;;;;;;;;;5153053;27;20086;-83
2021/09/20 03:34:14;;;;;;;3.90;2.53;;;;;;;;;;5144069;27;20058;-82
2021/09/20 03:36:41;;;;;;;5.57;2.65;;;;;;;;;;5130345;27;20047;-81
2021/09/20 03:39:07;;;;;;;6.25;2.90;;;;;;;;;;5130331;28;20070;-82
2021/09/20 03:41:34;;;;;;;3.63;1.90;;;;;;;;;;5128035;27;20089;-82
2021/09/20 03:44:04;;;;;;;10.52;2.85;;;;;;;;;;5127851;27;20107;-82
2021/09/20 03:46:31;;;;;;;5.07;2.67;;;;;;;;;;5154823;27;20103;-82
2021/09/20 03:48:58;;;;;;;11.38;2.78;;;;;;;;;;5154550;27;20050;-83
2021/09/20 03:51:25;;;;;;;4.40;2.40;;;;;;;;;;5126056;27;20059;-83
2021/09/20 03:53:52;;;;;;;3.85;2.45;;;;;;;;;;5141319;27;20043;-83
2021/09/20 03:56:18;;;;;;;3.85;2.47;;;;;;;;;;5127552;28;20047;-83
2021/09/20 03:58:45;;;;;;;6.22;2.55;;;;;;;;;;5154550;28;20069;-83
2021/09/20 04:01:16;;;;;;;7.53;2.33;;;;;;;;;;5130004;28;20323;-83
2021/09/20 04:03:43;;;;;;;5.00;2.63;;;;;;;;;;5123521;28;20047;-83
2021/09/20 04:06:10;;;;;;;4.25;2.38;;;;;;;;;;5123469;28;20483;-83
2021/09/20 04:08:40;;;;;;;3.70;2.40;;;;;;;;;;5120885;28;20145;-82
2021/09/20 04:11:08;;;;;;;6.95;2.25;;;;;;;;;;5138093;28;20047;-82
2021/09/20 04:13:35;;;;;;;4.82;2.92;;;;;;;;;;5138447;28;20058;-82
2021/09/20 04:16:02;;;;;;;6.43;2.70;;;;;;;;;;5121121;28;20146;-82
2021/09/20 04:18:29;;;;;;;5.68;2.40;;;;;;;;;;5120189;28;20216;-83
2021/09/20 04:20:56;;;;;;;8.00;2.92;;;;;;;;;;5120119;28;20079;-83
2021/09/20 04:23:26;;;;;;;4.10;2.58;;;;;;;;;;5137145;28;20299;-83
2021/09/20 04:25:56;;;;;;;7.53;2.78;;;;;;;;;;5120432;28;20047;-82
2021/09/20 04:28:26;;;;;;;7.78;2.88;;;;;;;;;;5137235;28;20066;-81
2021/09/20 04:30:52;;;;;;;8.48;3.08;;;;;;;;;;5121154;28;20066;-81
2021/09/20 04:33:20;;;;;;;8.52;3.28;;;;;;;;;;5119876;28;20047;-81
2021/09/20 04:35:51;;;;;;;7.43;2.95;;;;;;;;;;5143252;28;20065;-83
2021/09/20 04:38:17;;;;;;;5.07;3.13;;;;;;;;;;5123169;28;20051;-82
2021/09/20 04:40:45;;;;;;;7.07;2.88;;;;;;;;;;5128754;28;20051;-82
2021/09/20 04:43:16;;;;;;;7.75;2.53;;;;;;;;;;5115932;28;20153;-82
2021/09/20 04:45:43;;;;;;;6.35;2.95;;;;;;;;;;5096390;28;20107;-82
2021/09/20 04:48:11;;;;;;;8.45;2.88;;;;;;;;;;5097089;28;20079;-83
2021/09/20 04:50:43;;;;;;;7.28;3.03;;;;;;;;;;5100221;28;20070;-83
2021/09/20 04:53:11;;;;;;;5.72;2.55;;;;;;;;;;5126767;28;20047;-83
2021/09/20 04:55:41;;;;;;;5.00;2.85;;;;;;;;;;5139669;27;20205;-83
2021/09/20 04:58:09;;;;;;;12.27;3.05;;;;;;;;;;5146671;27;20123;-82
2021/09/20 05:00:37;;;;;;;6.82;2.63;;;;;;;;;;5133698;27;20079;-82
2021/09/20 05:03:05;;;;;;;5.90;2.80;;;;;;;;;;5116838;28;20051;-82
2021/09/20 05:05:32;;;;;;;8.05;2.70;;;;;;;;;;5099015;28;20059;-82
2021/09/20 05:07:59;;;;;;;7.63;2.70;;;;;;;;;;5116617;28;20060;-81
2021/09/20 05:10:25;;;;;;;3.85;2.40;;;;;;;;;;5116102;28;20601;-82
2021/09/20 05:12:56;;;;;;;9.65;3.10;;;;;;;;;;5121169;28;20075;-82
2021/09/20 05:15:23;;;;;;;5.25;2.90;;;;;;;;;;5116582;27;20423;-82
2021/09/20 05:17:50;;;;;;;9.07;2.88;;;;;;;;;;5114220;27;20210;-82
2021/09/20 05:20:20;;;;;;;7.03;2.30;;;;;;;;;;5133730;27;20349;-83
2021/09/20 05:22:49;;;;;;;7.50;2.83;;;;;;;;;;5135759;27;20058;-81
2021/09/20 05:25:16;;;;;;;3.47;2.53;;;;;;;;;;5133684;27;20134;-82
2021/09/20 05:27:51;;;;;;;16.23;3.38;;;;;;;;;;5115346;27;20355;-83
2021/09/20 05:30:21;;;;;;;6.00;2.90;;;;;;;;;;5114679;27;20051;-83
2021/09/20 05:32:47;;;;;;;7.68;3.33;;;;;;;;;;5112544;27;20411;-81
2021/09/20 05:35:15;;;;;;;7.05;2.83;;;;;;;;;;5114114;27;20047;-82
2021/09/20 05:37:42;;;;;;;7.05;2.90;;;;;;;;;;5107488;27;20047;-82
2021/09/20 05:40:12;;;;;;;5.95;3.00;;;;;;;;;;5130255;27;20098;-82
2021/09/20 05:42:39;;;;;;;12.82;3.30;;;;;;;;;;5113785;27;20481;-83
2021/09/20 05:45:12;;;;;;;7.15;3.13;;;;;;;;;;5113419;27;20051;-83
2021/09/20 05:47:39;;;;;;;8.48;3.40;;;;;;;;;;5133090;27;20055;-84
2021/09/20 05:50:10;;;;;;;6.45;2.75;;;;;;;;;;5121326;27;20051;-82
2021/09/20 05:52:37;;;;;;;7.82;3.65;;;;;;;;;;5111320;27;20340;-83
2021/09/20 05:55:14;;;;;;;5.75;3.40;;;;;;;;;;5117018;27;20059;-82
2021/09/20 05:57:41;;;;;;;9.32;3.05;;;;;;;;;;5114256;27;20066;-83
2021/09/20 06:00:13;;;;;;;9.20;2.75;;;;;;;;;;5111170;27;20412;-83
2021/09/20 06:02:45;;;;;;;6.47;3.40;;;;;;;;;;5108560;27;20260;-82
2021/09/20 06:05:14;;;;;;;7.03;3.05;;;;;;;;;;5113168;28;20248;-83
2021/09/20 06:07:42;;;;;;;6.75;3.00;;;;;;;;;;5108919;28;20055;-83
2021/09/20 06:10:13;;;;;;;7.47;2.88;;;;;;;;;;5111429;27;20439;-83
2021/09/20 06:12:40;;;;;;;5.65;3.03;;;;;;;;;;5106613;28;20335;-82
2021/09/20 06:15:08;;;;;;;4.95;3.00;;;;;;;;;;5102828;28;20435;-82
2021/09/20 06:17:40;;;;;;;10.35;3.22;;;;;;;;;;5110432;27;20055;-83
2021/09/20 06:20:09;;;;;;;6.22;2.92;;;;;;;;;;5095528;27;20055;-83
2021/09/20 06:22:36;;;;;;;5.00;2.83;;;;;;;;;;5111905;27;20057;-82
2021/09/20 06:25:08;;;;;;;6.05;2.95;;;;;;;;;;5105718;28;20051;-82
2021/09/20 06:27:39;;;;;;;6.30;3.25;;;;;;;;;;5094657;28;20155;-82
2021/09/20 06:30:07;;;;;;;8.57;2.72;;;;;;;;;;5117605;28;20047;-83
2021/09/20 06:32:39;;;;;;;10.75;2.65;;;;;;;;;;5098378;28;20066;-82
2021/09/20 06:35:07;;;;;;;5.75;2.72;;;;;;;;;;5094196;28;20047;-82
2021/09/20 06:37:37;;;;;;;7.90;2.60;;;;;;;;;;5113765;27;20142;-82
2021/09/20 06:40:06;;;;;;;7.03;3.20;;;;;;;;;;5110177;28;20128;-82
2021/09/20 06:42:35;;;;;;;6.70;2.75;;;;;;;;;;5112548;28;20052;-83
2021/09/20 06:45:03;;;;;;;5.70;2.67;;;;;;;;;;5111733;28;20079;-83
2021/09/20 06:47:30;;;;;;;4.05;2.45;;;;;;;;;;5095227;28;20223;-83
2021/09/20 06:49:57;;;;;;;4.93;2.50;;;;;;;;;;5094140;28;20146;-83
2021/09/20 06:52:24;;;;;;;5.50;2.55;;;;;;;;;;5099945;27;20051;-82
2021/09/20 06:54:51;;;;;;;4.30;2.50;;;;;;;;;;5112267;27;20292;-83
2021/09/20 06:57:17;;;;;;;5.07;2.90;;;;;;;;;;5112584;27;20058;-83
2021/09/20 06:59:47;;;;;;;3.45;2.50;;;;;;;;;;5112294;28;20051;-83
2021/09/20 07:02:17;;;;;;;7.68;2.42;;;;;;;;;;5110587;28;20324;-82
2021/09/20 07:04:45;;;;;;;7.18;2.60;;;;;;;;;;5111698;28;20506;-82
2021/09/20 07:07:14;;;;;;;6.80;2.67;;;;;;;;;;5120306;27;20035;-83
2021/09/20 07:09:41;;;;;;;10.35;2.67;;;;;;;;;;5147978;27;20035;-81
2021/09/20 07:12:08;;;;;;;6.80;2.67;;;;;;;;;;5147038;27;20058;-80
2021/09/20 07:14:37;;;;;;;8.68;2.80;;;;;;;;;;5114644;27;20225;-82
2021/09/20 07:17:08;;;;;;;6.45;2.55;;;;;;;;;;5131104;27;20465;-82
2021/09/20 07:19:52;;;;;;;5.25;2.83;;;;;;;;;;5132923;27;20101;-81
2021/09/20 07:22:19;;;;;;;6.32;2.53;;;;;;;;;;5105797;28;20036;-81
2021/09/20 07:24:46;;;;;;;5.70;2.83;;;;;;;;;;5092097;28;20054;-80
2021/09/20 07:27:13;;;;;;;9.18;2.60;;;;;;;;;;5110383;28;20542;-81
2021/09/20 07:29:41;;;;;;;5.70;2.80;;;;;;;;;;5074230;28;20059;-81
2021/09/20 07:32:08;;;;;;;7.13;2.72;;;;;;;;;;5105263;28;20107;-81
2021/09/20 07:34:35;;;;;;;7.10;2.83;;;;;;;;;;5102231;27;20055;-80
2021/09/20 07:37:03;;;;;;;5.22;2.65;;;;;;;;;;5108554;27;20196;-81
2021/09/20 07:39:37;;;;;;;5.80;2.15;;;;;;;;;;5125709;27;20055;-81
2021/09/20 07:42:06;;;;;;;4.88;1.92;;;;;;;;;;5124155;27;20142;-79
2021/09/20 07:44:38;;;;;;;9.77;2.60;;;;;;;;;;5086972;28;20374;-80
2021/09/20 07:47:06;;;;;;;6.53;2.22;;;;;;;;;;5106769;28;20083;-81
2021/09/20 07:49:34;;;;;;;7.93;2.42;;;;;;;;;;5105215;28;20058;-81
2021/09/20 07:52:01;;;;;;;5.32;2.50;;;;;;;;;;5089473;28;20063;-81
2021/09/20 07:54:28;;;;;;;9.23;1.95;;;;;;;;;;5107714;28;20084;-81
2021/09/20 07:56:54;;;;;;;5.22;1.95;;;;;;;;;;5089954;28;20058;-80
2021/09/20 07:59:21;;;;;;;3.35;2.28;;;;;;;;;;5091532;28;20051;-82
2021/09/20 08:01:48;;;;;;;5.97;2.38;;;;;;;;;;5108245;28;20078;-81
2021/09/20 08:04:18;;;;;;;5.43;2.80;;;;;;;;;;5134473;28;20234;-82
2021/09/20 08:06:48;;;;;;;6.88;1.90;;;;;;;;;;5109446;28;20047;-82
2021/09/20 08:09:15;;;;;;;6.28;2.28;;;;;;;;;;5126822;28;20051;-81
2021/09/20 08:11:42;;;;;;;7.50;1.95;;;;;;;;;;5129595;28;20178;-82
2021/09/20 08:14:09;;;;;;;7.10;2.13;;;;;;;;;;5106225;28;20143;-81
2021/09/20 08:16:36;;;;;;;5.15;2.42;;;;;;;;;;5081450;28;20063;-80
2021/09/20 08:19:03;;;;;;;5.80;1.75;;;;;;;;;;5086333;28;20080;-81
2021/09/20 08:21:30;;;;;;;4.43;1.88;;;;;;;;;;5085083;28;20044;-81
2021/09/20 08:24:00;;;;;;;6.47;2.00;;;;;;;;;;5091989;28;20108;-81
2021/09/20 08:26:29;;;;;;;5.28;2.22;;;;;;;;;;5099916;28;20063;-81
2021/09/20 08:28:56;;;;;;;7.05;2.30;;;;;;;;;;5095255;28;20299;-83
2021/09/20 08:31:23;;;;;;;5.03;2.17;;;;;;;;;;5094912;28;20048;-80
2021/09/20 08:33:53;;;;;;;6.40;1.80;;;;;;;;;;5086756;28;20109;-81
2021/09/20 08:36:20;;;;;;;7.00;2.42;;;;;;;;;;5092205;28;20197;-81
2021/09/20 08:38:47;;;;;;;3.88;2.00;;;;;;;;;;5081265;28;20195;-82
2021/09/20 08:41:15;;;;;;;3.80;1.77;;;;;;;;;;5072149;28;20064;-82
2021/09/20 08:43:43;;;;;;;9.38;2.47;;;;;;;;;;5073084;28;20052;-82
2021/09/20 08:46:10;;;;;;;16.52;2.55;;;;;;;;;;5075558;28;20059;-81
2021/09/20 08:48:41;;;;;;;2.50;1.85;;;;;;;;;;5092720;28;20044;-82
2021/09/20 08:51:12;;;;;;;4.85;1.60;;;;;;;;;;5089726;28;20052;-82
2021/09/20 08:53:40;;;;;;;2.33;1.42;;;;;;;;;;5090328;28;20051;-81
2021/09/20 08:56:07;;;;;;;5.22;1.48;;;;;;;;;;5069065;28;20056;-81
2021/09/20 08:58:35;;;;;;;4.55;1.50;;;;;;;;;;5072287;28;20064;-82
2021/09/20 09:01:02;;;;;;;5.18;1.65;;;;;;;;;;5067432;28;20451;-82
2021/09/20 09:03:29;;;;;;;3.42;1.60;;;;;;;;;;5076330;28;20054;-81
2021/09/20 09:05:57;;;;;;;3.92;1.30;;;;;;;;;;5090901;28;20071;-82
2021/09/20 09:08:36;;;;;;;5.28;1.42;;;;;;;;;;5089242;28;20261;-80
2021/09/20 09:11:14;;;;;;;3.08;1.38;;;;;;;;;;5093187;28;20056;-82
2021/09/20 09:13:43;;;;;;;2.83;1.20;;;;;;;;;;5089859;28;20081;-81
2021/09/20 09:16:22;;;;;;;2.83;1.30;;;;;;;;;;5076734;28;20124;-81
2021/09/20 09:18:59;;;;;;;2.50;1.23;;;;;;;;;;5070487;28;20458;-81
2021/09/20 09:21:28;;;;;;;3.15;1.30;;;;;;;;;;5088871;28;20399;-82
2021/09/20 09:24:00;;;;;;;5.28;1.25;;;;;;;;;;5094628;28;20044;-82
2021/09/20 09:26:31;;;;;;;4.25;1.65;;;;;;;;;;5098349;28;20048;-81
2021/09/20 09:29:13;;;;;;;6.13;1.40;;;;;;;;;;5100257;28;20166;-81
2021/09/20 09:31:42;;;;;;;6.32;1.50;;;;;;;;;;5093669;28;20044;-82
2021/09/20 09:34:13;;;;;;;2.33;1.00;;;;;;;;;;5104701;28;20047;-82
2021/09/20 09:36:41;;;;;;;2.80;1.10;;;;;;;;;;5097772;28;20227;-81
2021/09/20 09:39:09;;;;;;;3.70;1.55;;;;;;;;;;5099867;28;20056;-83
2021/09/20 09:41:38;;;;;;;4.07;1.13;;;;;;;;;;5097973;28;20056;-81
2021/09/20 09:44:07;;;;;;;3.80;1.55;;;;;;;;;;5088765;28;20108;-81
2021/09/20 09:46:38;;;;;;;2.30;1.20;;;;;;;;;;5073421;28;20090;-83
2021/09/20 09:49:19;;;;;;;5.30;1.73;;;;;;;;;;5072547;28;20151;-83
2021/09/20 09:52:10;;;;;;;2.67;1.30;;;;;;;;;;5073790;28;20056;-82
2021/09/20 09:54:41;;;;;;;1.75;0.90;;;;;;;;;;5072038;28;20264;-83
2021/09/20 09:57:18;;;;;;;3.55;0.85;;;;;;;;;;5083270;28;20348;-82
2021/09/20 09:59:56;;;;;;;2.30;1.00;;;;;;;;;;5070553;28;20118;-82
2021/09/20 10:02:31;;;;;;;1.45;0.77;;;;;;;;;;5085928;28;20512;-81
2021/09/20 10:04:59;;;;;;;2.63;0.95;;;;;;;;;;5085617;28;20109;-80
2021/09/20 10:07:28;;;;;;;6.10;0.90;;;;;;;;;;5085706;28;20052;-81
2021/09/20 10:09:56;;;;;;;3.88;1.10;;;;;;;;;;5078254;28;20060;-82
2021/09/20 10:12:29;;;;;;;2.90;1.20;;;;;;;;;;5091678;28;20228;-80
2021/09/20 10:14:57;;;;;;;1.52;0.90;;;;;;;;;;5092615;28;20051;-82
2021/09/20 10:17:25;;;;;;;2.10;1.23;;;;;;;;;;5121258;28;20228;-83
2021/09/20 10:19:52;;;;;;;13.18;2.05;;;;;;;;;;5111340;28;20113;-82
2021/09/20 10:22:23;;;;;;;2.22;1.27;;;;;;;;;;5110084;27;20284;-82
2021/09/20 10:24:50;;;;;;;3.85;0.90;;;;;;;;;;5095861;28;20366;-82
2021/09/20 10:27:18;;;;;;;2.72;1.30;;;;;;;;;;5108666;28;20279;-81
2021/09/20 10:29:51;;;;;;;5.07;1.17;;;;;;;;;;5121295;28;20348;-81
2021/09/20 10:32:21;;;;;;;7.07;1.30;;;;;;;;;;5125336;28;20067;-82
2021/09/20 10:34:51;;;;;;;3.17;1.27;;;;;;;;;;5111262;28;20048;-82
2021/09/20 10:37:23;;;;;;;2.03;1.42;;;;;;;;;;5094564;28;20074;-83
2021/09/20 10:39:51;;;;;;;3.08;1.48;;;;;;;;;;5102581;28;20036;-84
2021/09/20 10:42:37;;;;;;;3.05;1.27;;;;;;;;;;5120374;28;20188;-83
2021/09/20 10:45:07;;;;;;;3.10;1.60;;;;;;;;;;5106030;28;20670;-83
2021/09/20 10:47:44;;;;;;;3.38;1.65;;;;;;;;;;5103166;28;20458;-83
2021/09/20 10:50:11;;;;;;;4.57;1.15;;;;;;;;;;5112224;28;20200;-84
2021/09/20 10:52:57;;;;;;;5.47;1.30;;;;;;;;;;5108105;28;20154;-83
2021/09/20 10:55:24;;;;;;;2.17;1.17;;;;;;;;;;5107561;28;20229;-83
2021/09/20 10:58:29;;;;;;;3.97;1.65;;;;;;;;;;5108762;28;20467;-83
2021/09/20 11:01:15;;;;;;;5.28;1.25;;;;;;;;;;5009374;28;20098;-83
2021/09/20 11:03:59;;;;;;;4.87;1.30;;;;;;;;;;5010097;28;20057;-83
2021/09/20 11:06:39;;;;;;;3.38;1.17;;;;;;;;;;5084066;28;20490;-83
2021/09/20 11:09:05;;;;;;;5.30;1.20;;;;;;;;;;5101985;28;20042;-84
2021/09/20 11:14:29;;;;;;;3.72;1.45;;;;;;;;;;5092912;28;20409;-83
2021/09/20 11:16:58;;;;;;;16.27;3.33;;;;;;;;;;5074027;28;20084;-82
2021/09/20 11:19:28;;;;;;;2.28;1.45;;;;;;;;;;5076990;28;20415;-83
2021/09/20 11:24:44;;;;;;;4.40;1.65;;;;;;;;;;5086448;28;20093;-84
2021/09/20 11:27:14;;;;;;;3.58;1.52;;;;;;;;;;5081237;28;20064;-83
2021/09/20 11:29:42;;;;;;;5.57;1.80;;;;;;;;;;5075461;28;20060;-84
2021/09/20 11:32:08;;;;;;;3.35;1.92;;;;;;;;;;5082558;28;20060;-83
2021/09/20 11:34:38;;;;;;;3.42;1.67;;;;;;;;;;5094166;28;20454;-83
2021/09/20 11:37:36;;;;;;;2.60;1.80;;;;;;;;;;5090242;28;20191;-83
2021/09/20 11:40:06;;;;;;;7.32;1.63;;;;;;;;;;5081918;28;20225;-83
2021/09/20 11:42:38;;;;;;;8.55;2.10;;;;;;;;;;5071454;28;20067;-82
2021/09/20 11:45:21;;;;;;;2.55;1.75;;;;;;;;;;5084687;28;20048;-82
2021/09/20 11:47:49;;;;;;;5.57;1.65;;;;;;;;;;5078425;28;20059;-83
2021/09/20 11:50:18;;;;;;;3.10;1.60;;;;;;;;;;5078987;28;20456;-83
2021/09/20 11:52:49;;;;;;;3.22;1.85;;;;;;;;;;5066777;28;20518;-83
2021/09/20 11:55:18;;;;;;;2.85;1.58;;;;;;;;;;5066807;28;20056;-83
2021/09/20 11:57:47;;;;;;;4.82;1.55;;;;;;;;;;5070177;28;20053;-84
2021/09/20 12:00:15;;;;;;;4.55;1.58;;;;;;;;;;5068893;28;20236;-84
2021/09/20 12:02:46;;;;;;;4.82;1.42;;;;;;;;;;5069637;28;20232;-84
2021/09/20 12:05:18;;;;;;;3.13;1.70;;;;;;;;;;5081595;28;20272;-84
2021/09/20 12:07:56;;;;;;;3.67;1.85;;;;;;;;;;5074712;28;20053;-85
2021/09/20 12:10:34;;;;;;;3.88;1.63;;;;;;;;;;5068788;28;20074;-82
2021/09/20 12:13:03;;;;;;;5.28;1.75;;;;;;;;;;5086645;28;20064;-84
2021/09/20 12:15:31;;;;;;;2.83;1.98;;;;;;;;;;5106850;28;20055;-83
2021/09/20 12:18:02;;;;;;;6.68;1.70;;;;;;;;;;5117332;28;20466;-84
2021/09/20 12:20:31;;;;;;;4.10;1.42;;;;;;;;;;5138916;28;20051;-84
2021/09/20 12:22:59;;;;;;;3.63;1.65;;;;;;;;;;5121441;28;20039;-84
2021/09/20 12:25:34;;;;;;;5.45;2.03;;;;;;;;;;5122927;28;20047;-83
2021/09/20 12:28:02;;;;;;;4.78;1.77;;;;;;;;;;5099679;28;20088;-84
2021/09/20 12:30:30;;;;;;;5.95;1.70;;;;;;;;;;5094787;28;20130;-83
2021/09/20 12:33:11;;;;;;;3.13;1.70;;;;;;;;;;5116217;28;20090;-84
2021/09/20 12:35:39;;;;;;;3.55;1.90;;;;;;;;;;5111903;28;20165;-84
2021/09/20 12:38:24;;;;;;;2.67;1.33;;;;;;;;;;5109624;28;20334;-83
2021/09/20 12:40:52;;;;;;;4.20;1.60;;;;;;;;;;5133849;28;20247;-85
2021/09/20 12:43:22;;;;;;;4.13;1.73;;;;;;;;;;5124560;28;20051;-85
2021/09/20 12:45:49;;;;;;;6.63;1.52;;;;;;;;;;5136638;28;20077;-85
2021/09/20 12:48:18;;;;;;;2.90;1.45;;;;;;;;;;5098167;28;20048;-85
2021/09/20 12:50:46;;;;;;;4.53;1.80;;;;;;;;;;5113986;28;20090;-83
2021/09/20 12:53:20;;;;;;;3.08;1.50;;;;;;;;;;5094583;28;20054;-84
2021/09/20 12:55:47;;;;;;;3.67;1.27;;;;;;;;;;5093195;28;20051;-84
2021/09/20 12:58:24;;;;;;;3.63;1.27;;;;;;;;;;5114444;28;20063;-85
2021/09/20 13:00:57;;;;;;;3.17;1.63;;;;;;;;;;5114260;28;20058;-84
2021/09/20 13:03:34;;;;;;;3.72;1.30;;;;;;;;;;5104836;28;20138;-85
2021/09/20 13:06:03;;;;;;;3.45;1.30;;;;;;;;;;5105797;28;20080;-84
2021/09/20 13:08:51;;;;;;;2.72;1.50;;;;;;;;;;5132605;28;20055;-84
2021/09/20 13:11:24;;;;;;;4.07;1.48;;;;;;;;;;5129547;27;20105;-84
2021/09/20 13:13:52;;;;;;;3.45;1.45;;;;;;;;;;5117052;27;20075;-86
2021/09/20 13:16:38;;;;;;;1.63;1.35;;;;;;;;;;5114213;27;20230;-87
2021/09/20 13:19:08;;;;;;;7.22;1.85;;;;;;;;;;5129112;27;20047;-84
2021/09/20 13:21:35;;;;;;;2.40;1.30;;;;;;;;;;5115054;27;20104;-84
2021/09/20 13:24:02;;;;;;;3.28;1.40;;;;;;;;;;5114605;27;20051;-84
2021/09/20 13:26:35;;;;;;;3.67;1.65;;;;;;;;;;5133539;27;20059;-84
2021/09/20 13:29:07;;;;;;;3.70;1.80;;;;;;;;;;5133767;27;20290;-84
2021/09/20 13:31:35;;;;;;;3.17;1.50;;;;;;;;;;5130023;27;20112;-84
2021/09/20 13:34:09;;;;;;;3.80;1.98;;;;;;;;;;5133905;27;20118;-83
2021/09/20 13:36:36;;;;;;;2.72;1.63;;;;;;;;;;5133790;27;20070;-83
2021/09/20 13:39:03;;;;;;;4.13;1.90;;;;;;;;;;5118249;27;20063;-84
2021/09/20 13:41:30;;;;;;;2.80;1.58;;;;;;;;;;5135635;27;20047;-83
2021/09/20 13:43:57;;;;;;;3.63;1.77;;;;;;;;;;5117494;27;20071;-84
2021/09/20 13:46:25;;;;;;;5.85;1.73;;;;;;;;;;5113636;27;20059;-84
2021/09/20 13:48:54;;;;;;;3.35;1.50;;;;;;;;;;5135128;27;20063;-84
2021/09/20 13:51:22;;;;;;;7.63;1.98;;;;;;;;;;5148793;27;20247;-84
2021/09/20 13:53:50;;;;;;;5.45;1.77;;;;;;;;;;5111303;28;20055;-84
2021/09/20 13:56:19;;;;;;;2.38;1.70;;;;;;;;;;5097010;28;20251;-84
2021/09/20 13:58:47;;;;;;;4.30;2.00;;;;;;;;;;5125211;27;20059;-84
2021/09/20 14:01:14;;;;;;;3.80;2.10;;;;;;;;;;5124084;27;20056;-83
2021/09/20 14:03:44;;;;;;;7.75;1.90;;;;;;;;;;5124432;28;20443;-84
2021/09/20 14:06:12;;;;;;;4.43;1.98;;;;;;;;;;5133775;27;20071;-84
2021/09/20 14:08:39;;;;;;;4.53;2.00;;;;;;;;;;5134122;27;20116;-85
2021/09/20 14:11:12;;;;;;;2.92;2.10;;;;;;;;;;5115183;27;20051;-83
2021/09/20 14:13:39;;;;;;;5.43;2.10;;;;;;;;;;5116583;27;20199;-85
2021/09/20 14:16:07;;;;;;;6.65;2.13;;;;;;;;;;5108760;28;20444;-84
2021/09/20 14:18:36;;;;;;;5.03;2.05;;;;;;;;;;5097095;28;20051;-85
2021/09/20 14:21:03;;;;;;;2.53;1.83;;;;;;;;;;5116283;28;20169;-85
2021/09/20 14:23:33;;;;;;;3.33;1.95;;;;;;;;;;5116085;28;20321;-83
2021/09/20 14:26:00;;;;;;;3.60;2.15;;;;;;;;;;5110805;28;20075;-83
2021/09/20 14:28:26;;;;;;;3.58;1.77;;;;;;;;;;5110540;28;20105;-83
2021/09/20 14:30:53;;;;;;;4.70;1.77;;;;;;;;;;5110709;28;20412;-83
2021/09/20 14:33:20;;;;;;;5.13;1.98;;;;;;;;;;5110577;28;20048;-84
2021/09/20 14:35:47;;;;;;;5.90;1.90;;;;;;;;;;5099499;28;20136;-84
2021/09/20 14:38:14;;;;;;;5.43;2.10;;;;;;;;;;5088716;28;20052;-84
2021/09/20 14:40:47;;;;;;;8.90;2.38;;;;;;;;;;5098495;28;20151;-85
2021/09/20 14:43:14;;;;;;;11.98;2.10;;;;;;;;;;5090952;28;20048;-84
2021/09/20 14:45:44;;;;;;;9.98;2.30;;;;;;;;;;5089348;28;20145;-82
2021/09/20 14:48:12;;;;;;;3.55;2.25;;;;;;;;;;5087201;28;20044;-84
2021/09/20 14:50:39;;;;;;;5.55;2.17;;;;;;;;;;5105127;28;20055;-85
2021/09/20 14:53:10;;;;;;;4.57;2.13;;;;;;;;;;5092443;28;20060;-84
2021/09/20 14:55:39;;;;;;;3.58;2.20;;;;;;;;;;5090589;28;20052;-84
2021/09/20 14:58:06;;;;;;;2.67;1.77;;;;;;;;;;5091065;28;20219;-84
2021/09/20 15:00:36;;;;;;;2.65;1.92;;;;;;;;;;5090252;28;20043;-83